Time;durP1;ratioP1;P1;durP2;ratioP2;P2;SDS_P1;SDS_P2;PMS_P1;PMS_P2;Temp;Humidity;BMP_temperature;BMP_pressure;BME280_temperature;BME280_humidity;BME280_pressure;Samples;Min_cycle;Max_cycle;Signal;HPM_P1;HPM_P2
2022/07/20 00:02:21;;;;;;;1.80;1.70;;;;;22.40;98336.00;;;;5114864;28;20205;-72
2022/07/20 00:04:48;;;;;;;0.85;0.85;;;;;22.20;98347.00;;;;5114644;28;20221;-72
2022/07/20 00:07:15;;;;;;;1.38;1.27;;;;;22.30;98342.00;;;;5114852;28;20190;-72
2022/07/20 00:12:28;;;;;;;0.40;0.40;;;;;22.20;98339.00;;;;5114707;28;20202;-72
2022/07/20 00:14:57;;;;;;;2.60;1.05;;;;;22.00;98335.00;;;;5096856;28;20197;-72
2022/07/20 00:17:24;;;;;;;0.52;0.52;;;;;21.90;98341.00;;;;5114531;28;20738;-72
2022/07/20 00:19:51;;;;;;;1.73;1.58;;;;;21.90;98343.00;;;;5096669;28;20525;-72
2022/07/20 00:22:18;;;;;;;1.60;1.17;;;;;21.90;98338.00;;;;5114577;28;20292;-72
2022/07/20 00:24:45;;;;;;;0.82;0.82;;;;;21.80;98339.00;;;;5114683;28;20217;-72
2022/07/20 00:27:12;;;;;;;0.75;0.75;;;;;21.70;98339.00;;;;5114520;28;20648;-72
2022/07/20 00:29:39;;;;;;;0.40;0.40;;;;;21.70;98342.00;;;;5114392;28;20221;-72
2022/07/20 00:32:06;;;;;;;1.33;1.25;;;;;21.70;98345.00;;;;5114446;28;20277;-72
2022/07/20 00:34:33;;;;;;;0.90;0.90;;;;;21.80;98338.00;;;;5114351;28;20208;-71
2022/07/20 00:37:00;;;;;;;0.70;0.70;;;;;21.60;98336.00;;;;5114306;28;20198;-72
2022/07/20 00:39:27;;;;;;;0.80;0.80;;;;;21.60;98332.00;;;;5114384;28;20262;-72
2022/07/20 00:41:54;;;;;;;8.02;1.10;;;;;21.70;98341.00;;;;5113452;28;20297;-72
2022/07/20 00:44:20;;;;;;;0.70;0.70;;;;;21.70;98330.00;;;;5114232;28;20254;-72
2022/07/20 00:46:53;;;;;;;1.20;1.20;;;;;21.80;98340.00;;;;5114234;28;20201;-71
2022/07/20 00:49:20;;;;;;;0.90;0.90;;;;;21.60;98338.00;;;;5114280;28;20213;-72
2022/07/20 00:51:47;;;;;;;0.77;0.77;;;;;21.40;98335.00;;;;5114347;28;20272;-72
2022/07/20 00:54:16;;;;;;;1.15;1.08;;;;;21.40;98334.00;;;;5114003;28;20278;-71
2022/07/20 00:56:43;;;;;;;0.63;0.63;;;;;21.30;98339.00;;;;5114390;28;20222;-71
2022/07/20 00:59:11;;;;;;;1.48;1.38;;;;;21.10;98342.00;;;;5096264;28;20598;-71
2022/07/20 01:01:39;;;;;;;2.58;0.93;;;;;21.10;98342.00;;;;5114440;28;20194;-72
2022/07/20 01:04:06;;;;;;;1.63;1.53;;;;;21.10;98344.00;;;;5114074;28;20190;-72
2022/07/20 01:06:34;;;;;;;0.80;0.80;;;;;21.10;98347.00;;;;5113941;28;20286;-72
2022/07/20 01:09:01;;;;;;;0.93;0.93;;;;;21.00;98341.00;;;;5096253;28;20533;-72
2022/07/20 01:11:28;;;;;;;2.40;1.25;;;;;21.00;98344.00;;;;5095778;28;20202;-72
2022/07/20 01:14:01;;;;;;;2.70;2.50;;;;;20.90;98343.00;;;;5113979;28;20173;-72
2022/07/20 01:16:28;;;;;;;0.75;0.75;;;;;20.90;98335.00;;;;5113780;28;20213;-72
2022/07/20 01:18:55;;;;;;;0.60;0.60;;;;;20.80;98340.00;;;;5113872;28;20200;-72
2022/07/20 01:21:22;;;;;;;0.70;0.70;;;;;20.80;98335.00;;;;5113755;28;20201;-71
2022/07/20 01:23:51;;;;;;;0.93;0.93;;;;;20.70;98337.00;;;;5113847;28;20218;-71
2022/07/20 01:26:19;;;;;;;1.23;1.23;;;;;20.60;98327.00;;;;5113705;28;20209;-71
2022/07/20 01:28:47;;;;;;;1.00;1.00;;;;;20.60;98325.00;;;;5113680;28;20194;-72
2022/07/20 01:31:14;;;;;;;0.83;0.83;;;;;20.60;98323.00;;;;5113630;28;20309;-72
2022/07/20 01:33:43;;;;;;;2.00;1.80;;;;;20.40;98323.00;;;;5113778;28;20221;-71
2022/07/20 01:36:10;;;;;;;0.70;0.70;;;;;20.40;98327.00;;;;5114150;28;20222;-72
2022/07/20 01:38:37;;;;;;;0.60;0.60;;;;;20.40;98327.00;;;;5119218;28;20186;-72
2022/07/20 01:41:04;;;;;;;0.80;0.80;;;;;20.30;98331.00;;;;5116194;28;20201;-72
2022/07/20 01:43:31;;;;;;;0.67;0.67;;;;;20.20;98335.00;;;;5115152;28;20204;-71
2022/07/20 01:45:58;;;;;;;2.13;1.83;;;;;20.40;98328.00;;;;5114480;28;20289;-72
2022/07/20 01:48:25;;;;;;;0.80;0.80;;;;;20.40;98323.00;;;;5113749;28;20255;-71
2022/07/20 01:50:52;;;;;;;1.30;1.20;;;;;20.40;98326.00;;;;5113487;28;20197;-73
2022/07/20 01:53:21;;;;;;;1.37;1.30;;;;;20.40;98322.00;;;;5114183;28;20201;-72
2022/07/20 01:55:48;;;;;;;1.97;1.17;;;;;20.40;98324.00;;;;5116956;28;20249;-72
2022/07/20 01:58:17;;;;;;;1.37;1.23;;;;;20.40;98324.00;;;;5116832;28;20588;-72
2022/07/20 02:00:44;;;;;;;1.53;1.43;;;;;20.30;98331.00;;;;5116767;28;20308;-72
2022/07/20 02:03:11;;;;;;;2.20;2.10;;;;;20.20;98322.00;;;;5116732;28;20242;-73
2022/07/20 02:05:38;;;;;;;0.60;0.60;;;;;20.30;98329.00;;;;5098825;28;20546;-71
2022/07/20 02:08:05;;;;;;;1.80;1.07;;;;;20.40;98329.00;;;;5116725;28;20277;-72
2022/07/20 02:10:34;;;;;;;0.60;0.60;;;;;20.30;98326.00;;;;5116673;28;20626;-72
2022/07/20 02:13:02;;;;;;;0.70;0.70;;;;;20.30;98324.00;;;;5116582;28;20210;-71
2022/07/20 02:18:14;;;;;;;1.17;1.17;;;;;20.10;98326.00;;;;5116465;28;20516;-71
2022/07/20 02:20:41;;;;;;;0.60;0.60;;;;;20.20;98323.00;;;;5116577;28;20273;-72
2022/07/20 02:23:10;;;;;;;0.80;0.80;;;;;20.10;98326.00;;;;5116453;28;20285;-72
2022/07/20 02:25:37;;;;;;;8.90;1.50;;;;;20.10;98315.00;;;;5116318;28;20305;-72
2022/07/20 02:28:06;;;;;;;1.33;1.23;;;;;20.00;98322.00;;;;5116310;28;20205;-72
2022/07/20 02:30:33;;;;;;;1.07;1.07;;;;;20.10;98322.00;;;;5116210;28;20272;-72
2022/07/20 02:33:01;;;;;;;0.30;0.30;;;;;20.30;98322.00;;;;5098348;28;20221;-72
2022/07/20 02:35:28;;;;;;;0.73;0.73;;;;;20.20;98313.00;;;;5116152;28;20214;-72
2022/07/20 02:37:57;;;;;;;0.77;0.77;;;;;20.20;98323.00;;;;5116307;28;20256;-72
2022/07/20 02:40:24;;;;;;;0.67;0.67;;;;;20.10;98318.00;;;;5116179;28;20617;-72
2022/07/20 02:42:51;;;;;;;1.53;1.43;;;;;19.90;98326.00;;;;5098270;28;20265;-71
2022/07/20 02:45:21;;;;;;;0.70;0.70;;;;;19.80;98319.00;;;;5116109;28;20669;-72
2022/07/20 02:47:49;;;;;;;1.30;1.27;;;;;19.80;98327.00;;;;5116015;28;20190;-72
2022/07/20 02:50:16;;;;;;;2.17;2.07;;;;;19.80;98325.00;;;;5116215;28;20218;-71
2022/07/20 02:52:43;;;;;;;1.10;1.10;;;;;19.80;98319.00;;;;5115928;28;20202;-72
2022/07/20 02:55:11;;;;;;;1.00;1.00;;;;;19.80;98322.00;;;;5115836;28;20225;-73
2022/07/20 02:57:38;;;;;;;1.03;1.03;;;;;19.70;98321.00;;;;5116101;28;20198;-72
2022/07/20 03:00:06;;;;;;;1.07;0.97;;;;;19.80;98324.00;;;;5115884;28;20637;-71
2022/07/20 03:02:33;;;;;;;0.80;0.80;;;;;19.80;98313.00;;;;5115821;28;20254;-71
2022/07/20 03:05:00;;;;;;;1.10;1.10;;;;;19.70;98317.00;;;;5097178;28;20284;-72
2022/07/20 03:07:29;;;;;;;0.70;0.70;;;;;19.50;98324.00;;;;5115695;28;20217;-72
2022/07/20 03:09:56;;;;;;;0.80;0.80;;;;;19.40;98325.00;;;;5115869;28;20519;-72
2022/07/20 03:12:23;;;;;;;1.53;1.43;;;;;19.50;98325.00;;;;5115764;28;20204;-72
2022/07/20 03:14:52;;;;;;;2.57;1.83;;;;;19.50;98328.00;;;;5115675;28;20198;-72
2022/07/20 03:17:19;;;;;;;0.77;0.77;;;;;19.60;98327.00;;;;5115730;28;20262;-73
2022/07/20 03:19:46;;;;;;;2.00;1.80;;;;;19.50;98321.00;;;;5115705;28;20297;-73
2022/07/20 03:22:13;;;;;;;0.87;0.87;;;;;19.40;98324.00;;;;5115860;28;20273;-73
2022/07/20 03:24:40;;;;;;;0.70;0.70;;;;;19.40;98318.00;;;;5115686;28;20194;-73
2022/07/20 03:27:07;;;;;;;1.33;1.33;;;;;19.30;98320.00;;;;5115612;28;20205;-72
2022/07/20 03:29:36;;;;;;;0.80;0.80;;;;;19.30;98320.00;;;;5115478;28;20198;-72
2022/07/20 03:32:04;;;;;;;0.80;0.80;;;;;19.40;98315.00;;;;5115363;28;20536;-71
2022/07/20 03:34:31;;;;;;;0.93;0.93;;;;;19.10;98316.00;;;;5115783;28;20220;-72
2022/07/20 03:36:58;;;;;;;0.70;0.70;;;;;19.10;98315.00;;;;5115415;28;20283;-72
2022/07/20 03:39:25;;;;;;;0.63;0.63;;;;;19.10;98318.00;;;;5115452;28;20201;-71
2022/07/20 03:41:52;;;;;;;5.70;1.50;;;;;19.20;98327.00;;;;5115376;28;20586;-72
2022/07/20 03:44:19;;;;;;;3.03;1.10;;;;;19.20;98322.00;;;;5115183;28;20554;-72
2022/07/20 03:46:46;;;;;;;1.30;1.30;;;;;19.20;98330.00;;;;5115154;28;20232;-72
2022/07/20 03:49:13;;;;;;;1.23;1.23;;;;;19.30;98323.00;;;;5115112;28;20294;-72
2022/07/20 03:51:40;;;;;;;1.37;1.30;;;;;19.40;98316.00;;;;5097142;28;20198;-72
2022/07/20 03:54:07;;;;;;;1.63;1.53;;;;;19.30;98317.00;;;;5097104;28;20206;-72
2022/07/20 03:56:39;;;;;;;1.00;0.97;;;;;19.30;98311.00;;;;5115023;28;20229;-72
2022/07/20 03:59:07;;;;;;;0.57;0.57;;;;;19.30;98321.00;;;;5115077;28;20202;-73
2022/07/20 04:01:34;;;;;;;1.50;1.40;;;;;19.40;98309.00;;;;5114931;28;20495;-72
2022/07/20 04:04:01;;;;;;;2.70;2.07;;;;;19.30;98314.00;;;;5114727;28;20198;-72
2022/07/20 04:06:28;;;;;;;1.23;1.13;;;;;19.40;98319.00;;;;5114710;28;20197;-71
2022/07/20 04:08:55;;;;;;;2.00;1.63;;;;;19.40;98317.00;;;;5114689;28;20546;-72
2022/07/20 04:11:23;;;;;;;0.90;0.90;;;;;19.30;98321.00;;;;5114727;28;20277;-74
2022/07/20 04:13:50;;;;;;;0.90;0.90;;;;;19.30;98309.00;;;;5114620;28;20267;-72
2022/07/20 04:16:17;;;;;;;1.43;1.33;;;;;19.30;98316.00;;;;5114376;28;20232;-73
2022/07/20 04:18:43;;;;;;;24.83;1.50;;;;;19.40;98320.00;;;;5113931;28;20242;-72
2022/07/20 04:21:10;;;;;;;1.33;1.30;;;;;19.50;98321.00;;;;5114567;28;20271;-72
2022/07/20 04:23:37;;;;;;;0.73;0.73;;;;;19.50;98319.00;;;;5114594;28;20194;-72
2022/07/20 04:26:04;;;;;;;0.77;0.77;;;;;19.40;98327.00;;;;5114387;28;20266;-72
2022/07/20 04:28:32;;;;;;;1.30;1.30;;;;;19.40;98328.00;;;;5114470;28;20217;-72
2022/07/20 04:31:01;;;;;;;1.20;1.20;;;;;19.40;98323.00;;;;5114513;28;20198;-72
2022/07/20 04:33:28;;;;;;;0.60;0.60;;;;;19.40;98322.00;;;;5096451;28;20237;-72
2022/07/20 04:35:55;;;;;;;3.37;1.23;;;;;19.50;98329.00;;;;5114281;28;20214;-73
2022/07/20 04:38:22;;;;;;;1.10;1.00;;;;;19.50;98325.00;;;;5114218;28;20213;-71
2022/07/20 04:40:51;;;;;;;1.53;1.43;;;;;19.50;98317.00;;;;5114582;28;20194;-72
2022/07/20 04:43:18;;;;;;;0.67;0.67;;;;;19.60;98326.00;;;;5114264;28;20197;-71
2022/07/20 04:45:45;;;;;;;0.63;0.63;;;;;19.60;98331.00;;;;5114166;28;20241;-71
2022/07/20 04:48:12;;;;;;;0.97;0.97;;;;;19.70;98329.00;;;;5114043;28;20198;-71
2022/07/20 04:50:41;;;;;;;2.20;1.50;;;;;19.60;98329.00;;;;5114099;28;20656;-73
2022/07/20 04:53:08;;;;;;;1.37;1.37;;;;;19.70;98333.00;;;;5114189;28;20198;-72
2022/07/20 04:55:35;;;;;;;0.53;0.53;;;;;19.70;98322.00;;;;5113998;28;20273;-72
2022/07/20 04:58:02;;;;;;;1.07;1.07;;;;;19.80;98325.00;;;;5096085;28;20263;-71
2022/07/20 05:00:31;;;;;;;1.60;1.53;;;;;19.80;98318.00;;;;5113928;28;20202;-71
2022/07/20 05:02:58;;;;;;;0.70;0.70;;;;;19.90;98320.00;;;;5113966;28;20218;-71
2022/07/20 05:05:25;;;;;;;1.47;1.37;;;;;19.90;98314.00;;;;5113932;28;20212;-72
2022/07/20 05:07:52;;;;;;;0.97;0.97;;;;;19.90;98313.00;;;;5113861;28;20235;-70
2022/07/20 05:10:19;;;;;;;0.90;0.90;;;;;19.90;98309.00;;;;5114033;28;20637;-71
2022/07/20 05:12:45;;;;;;;1.57;1.03;;;;;20.00;98309.00;;;;5113810;28;20233;-72
2022/07/20 05:15:12;;;;;;;0.93;0.93;;;;;20.10;98309.00;;;;5113720;28;20304;-71
2022/07/20 05:17:41;;;;;;;0.60;0.60;;;;;20.20;98317.00;;;;5113891;28;20194;-71
2022/07/20 05:20:10;;;;;;;1.80;1.70;;;;;20.20;98315.00;;;;5113916;28;20190;-71
2022/07/20 05:22:37;;;;;;;1.60;1.50;;;;;20.20;98317.00;;;;5113746;28;20197;-71
2022/07/20 05:25:05;;;;;;;1.80;1.70;;;;;20.30;98316.00;;;;5113790;28;20277;-72
2022/07/20 05:27:32;;;;;;;1.57;1.47;;;;;20.40;98317.00;;;;5113619;28;20221;-72
2022/07/20 05:29:58;;;;;;;2.03;1.83;;;;;20.50;98321.00;;;;5116624;28;20210;-72
2022/07/20 05:32:25;;;;;;;0.90;0.90;;;;;20.40;98321.00;;;;5117199;28;20275;-72
2022/07/20 05:34:54;;;;;;;0.90;0.90;;;;;20.50;98321.00;;;;5117225;28;20198;-72
2022/07/20 05:37:21;;;;;;;1.33;1.17;;;;;20.60;98327.00;;;;5117205;28;20194;-72
2022/07/20 05:39:48;;;;;;;1.60;1.50;;;;;20.80;98324.00;;;;5117355;28;20225;-72
2022/07/20 05:42:15;;;;;;;2.50;2.30;;;;;20.80;98324.00;;;;5117109;28;20273;-72
2022/07/20 05:44:42;;;;;;;1.30;1.30;;;;;20.90;98320.00;;;;5117118;28;20186;-73
2022/07/20 05:47:09;;;;;;;1.57;1.47;;;;;20.90;98324.00;;;;5116882;28;20590;-72
2022/07/20 05:49:38;;;;;;;1.47;1.37;;;;;21.00;98324.00;;;;5117135;28;20205;-73
2022/07/20 05:52:05;;;;;;;2.33;1.80;;;;;21.10;98330.00;;;;5117003;28;20672;-74
2022/07/20 05:54:33;;;;;;;1.30;1.30;;;;;21.30;98336.00;;;;5117107;28;20251;-74
2022/07/20 05:56:59;;;;;;;0.98;0.98;;;;;21.30;98336.00;;;;5116710;28;20238;-74
2022/07/20 05:59:28;;;;;;;0.98;0.98;;;;;21.30;98339.00;;;;5116859;28;20186;-72
2022/07/20 06:01:55;;;;;;;0.77;0.77;;;;;21.50;98345.00;;;;5116832;28;20229;-74
2022/07/20 06:04:22;;;;;;;0.82;0.82;;;;;21.50;98344.00;;;;5116721;28;20197;-73
2022/07/20 06:06:51;;;;;;;1.58;1.48;;;;;21.70;98349.00;;;;5116684;28;20202;-74
2022/07/20 06:09:18;;;;;;;3.05;1.30;;;;;21.80;98356.00;;;;5099070;28;20201;-73
2022/07/20 06:11:45;;;;;;;1.55;1.10;;;;;21.90;98364.00;;;;5116869;28;20190;-73
2022/07/20 06:14:12;;;;;;;0.82;0.82;;;;;22.00;98367.00;;;;5116515;28;20228;-73
2022/07/20 06:16:39;;;;;;;1.60;1.50;;;;;22.10;98372.00;;;;5116770;28;20233;-73
2022/07/20 06:19:08;;;;;;;0.50;0.50;;;;;22.20;98371.00;;;;5098502;28;20232;-73
2022/07/20 06:21:35;;;;;;;0.88;0.88;;;;;22.30;98360.00;;;;5116378;28;20220;-75
2022/07/20 06:24:02;;;;;;;1.05;1.05;;;;;22.40;98360.00;;;;5116501;28;20212;-75
2022/07/20 06:26:31;;;;;;;1.10;1.10;;;;;22.50;98362.00;;;;5116309;28;20226;-73
2022/07/20 06:29:00;;;;;;;1.40;1.40;;;;;22.60;98362.00;;;;5116508;28;20167;-73
2022/07/20 06:31:28;;;;;;;1.77;1.67;;;;;22.70;98360.00;;;;5116737;28;20206;-75
2022/07/20 06:33:55;;;;;;;3.25;2.75;;;;;22.90;98362.00;;;;5116543;28;20221;-74
2022/07/20 06:36:24;;;;;;;1.33;1.33;;;;;23.00;98357.00;;;;5116335;28;20260;-74
2022/07/20 06:38:54;;;;;;;1.08;1.08;;;;;23.10;98359.00;;;;5116507;28;20221;-75
2022/07/20 06:41:21;;;;;;;1.50;1.50;;;;;23.30;98360.00;;;;5115323;28;20197;-74
2022/07/20 06:43:47;;;;;;;1.13;1.08;;;;;23.50;98352.00;;;;5121616;28;20567;-75
2022/07/20 06:46:15;;;;;;;1.10;1.10;;;;;23.70;98351.00;;;;5118693;28;20222;-74
2022/07/20 06:48:42;;;;;;;0.73;0.73;;;;;23.90;98357.00;;;;5101183;28;20536;-74
2022/07/20 06:51:11;;;;;;;1.00;1.00;;;;;24.10;98355.00;;;;5117580;28;20226;-75
2022/07/20 06:53:40;;;;;;;1.33;1.27;;;;;24.20;98364.00;;;;5116203;28;20209;-74
2022/07/20 06:56:07;;;;;;;3.17;1.15;;;;;24.30;98364.00;;;;5115880;28;20266;-74
2022/07/20 06:58:34;;;;;;;1.05;1.05;;;;;24.50;98365.00;;;;5115853;28;20221;-75
2022/07/20 07:01:01;;;;;;;0.73;0.73;;;;;24.60;98366.00;;;;5115892;28;20196;-75
2022/07/20 07:03:29;;;;;;;1.48;1.42;;;;;24.70;98363.00;;;;5115772;28;20218;-74
2022/07/20 07:05:55;;;;;;;2.20;1.98;;;;;24.90;98373.00;;;;5115856;28;20292;-74
2022/07/20 07:08:22;;;;;;;1.30;1.30;;;;;24.90;98373.00;;;;5115738;28;20633;-75
2022/07/20 07:10:51;;;;;;;1.13;1.13;;;;;25.20;98368.00;;;;5115671;28;20246;-72
2022/07/20 07:13:18;;;;;;;17.55;2.08;;;;;25.40;98369.00;;;;5115720;28;20212;-73
2022/07/20 07:15:45;;;;;;;0.70;0.70;;;;;25.80;98371.00;;;;5115447;28;20669;-76
2022/07/20 07:18:12;;;;;;;1.88;1.77;;;;;25.80;98363.00;;;;5115801;28;20190;-74
2022/07/20 07:20:39;;;;;;;1.20;1.20;;;;;25.90;98373.00;;;;5115527;28;20190;-75
2022/07/20 07:23:06;;;;;;;1.55;1.45;;;;;26.00;98367.00;;;;5115498;28;20222;-73
2022/07/20 07:25:33;;;;;;;0.85;0.85;;;;;26.20;98370.00;;;;5097527;28;20521;-73
2022/07/20 07:28:00;;;;;;;1.30;1.30;;;;;26.20;98367.00;;;;5115566;28;20230;-75
2022/07/20 07:30:26;;;;;;;1.35;1.33;;;;;26.30;98368.00;;;;5115420;28;20205;-74
2022/07/20 07:32:53;;;;;;;1.90;1.77;;;;;26.40;98363.00;;;;5115401;28;20210;-74
2022/07/20 07:35:20;;;;;;;1.20;1.13;;;;;26.50;98358.00;;;;5115195;28;20283;-74
2022/07/20 07:37:48;;;;;;;1.50;1.40;;;;;26.60;98344.00;;;;5097352;28;20194;-77
2022/07/20 07:40:17;;;;;;;0.75;0.75;;;;;26.70;98346.00;;;;5115223;28;20625;-77
2022/07/20 07:42:44;;;;;;;2.03;1.85;;;;;26.80;98355.00;;;;5115322;28;20202;-77
2022/07/20 07:45:11;;;;;;;0.93;0.93;;;;;27.00;98356.00;;;;5115193;28;20183;-77
2022/07/20 07:47:38;;;;;;;0.80;0.80;;;;;27.10;98365.00;;;;5115042;28;20233;-76
2022/07/20 07:50:06;;;;;;;2.15;1.55;;;;;27.20;98369.00;;;;5115127;28;20190;-77
2022/07/20 07:52:35;;;;;;;1.33;1.33;;;;;27.30;98369.00;;;;5114867;28;20198;-78
2022/07/20 07:55:03;;;;;;;0.95;0.95;;;;;27.40;98360.00;;;;5114920;28;20242;-76
2022/07/20 07:57:30;;;;;;;0.80;0.80;;;;;27.60;98359.00;;;;5114887;28;20201;-74
2022/07/20 07:59:57;;;;;;;1.15;1.15;;;;;27.60;98351.00;;;;5114945;28;20296;-75
2022/07/20 08:02:26;;;;;;;1.77;1.67;;;;;27.70;98354.00;;;;5114953;28;20205;-74
2022/07/20 08:04:53;;;;;;;0.88;0.88;;;;;27.70;98362.00;;;;5114939;28;20186;-71
2022/07/20 08:07:20;;;;;;;0.90;0.90;;;;;27.80;98365.00;;;;5114752;28;20221;-73
2022/07/20 08:09:46;;;;;;;0.63;0.63;;;;;28.10;98362.00;;;;5114830;28;20258;-72
2022/07/20 08:12:14;;;;;;;17.45;1.70;;;;;28.20;98360.00;;;;5114722;28;20282;-73
2022/07/20 08:14:43;;;;;;;1.15;1.13;;;;;28.20;98356.00;;;;5114666;28;20178;-71
2022/07/20 08:17:10;;;;;;;0.85;0.85;;;;;28.30;98362.00;;;;5096571;28;20529;-72
2022/07/20 08:19:37;;;;;;;1.35;1.35;;;;;28.40;98364.00;;;;5114562;28;20224;-71
2022/07/20 08:22:04;;;;;;;1.40;1.30;;;;;28.50;98368.00;;;;5114817;28;20664;-73
2022/07/20 08:24:31;;;;;;;0.70;0.70;;;;;28.60;98361.00;;;;5096657;28;20595;-74
2022/07/20 08:26:57;;;;;;;1.13;1.13;;;;;28.60;98362.00;;;;5114854;28;20209;-72
2022/07/20 08:29:25;;;;;;;0.90;0.90;;;;;28.70;98358.00;;;;5096802;28;20204;-71
2022/07/20 08:31:52;;;;;;;0.95;0.95;;;;;28.80;98362.00;;;;5114345;28;20228;-73
2022/07/20 08:34:21;;;;;;;1.10;1.10;;;;;28.90;98364.00;;;;5114320;28;20211;-72
2022/07/20 08:36:47;;;;;;;1.20;1.20;;;;;29.00;98359.00;;;;5114199;28;20226;-74
2022/07/20 08:39:14;;;;;;;1.48;1.40;;;;;29.10;98363.00;;;;5114636;28;20225;-72
2022/07/20 08:41:42;;;;;;;0.80;0.80;;;;;29.30;98364.00;;;;5114275;28;20213;-72
2022/07/20 08:44:09;;;;;;;0.70;0.70;;;;;29.50;98366.00;;;;5114302;28;20241;-72
2022/07/20 08:46:37;;;;;;;0.93;0.93;;;;;29.60;98364.00;;;;5114505;28;20220;-73
2022/07/20 08:49:04;;;;;;;1.15;1.15;;;;;29.80;98368.00;;;;5114120;28;20201;-73
2022/07/20 08:51:31;;;;;;;1.92;1.42;;;;;30.00;98376.00;;;;5114289;28;20679;-73
2022/07/20 08:53:59;;;;;;;1.15;1.15;;;;;30.10;98374.00;;;;5114129;28;20194;-73
2022/07/20 08:56:26;;;;;;;0.80;0.80;;;;;30.20;98382.00;;;;5096130;28;20544;-74
2022/07/20 08:58:53;;;;;;;1.25;1.25;;;;;30.30;98387.00;;;;5096203;28;20236;-71
2022/07/20 09:01:22;;;;;;;1.30;1.20;;;;;30.30;98386.00;;;;5114219;28;20198;-72
2022/07/20 09:04:08;;;;;;;1.70;1.60;;;;;30.30;98387.00;;;;5117427;28;20193;-72
2022/07/20 09:06:35;;;;;;;2.15;2.05;;;;;30.40;98390.00;;;;5120794;28;20186;-71
2022/07/20 09:09:05;;;;;;;1.15;1.15;;;;;30.40;98392.00;;;;5120852;28;20205;-73
2022/07/20 09:11:33;;;;;;;1.48;1.20;;;;;30.60;98388.00;;;;5102994;28;20201;-74
2022/07/20 09:14:00;;;;;;;0.82;0.82;;;;;30.70;98397.00;;;;5120634;28;20688;-73
2022/07/20 09:16:36;;;;;;;1.30;1.30;;;;;30.80;98399.00;;;;5120692;28;20231;-73
2022/07/20 09:19:03;;;;;;;0.95;0.95;;;;;30.80;98395.00;;;;5120601;28;20213;-73
2022/07/20 09:21:32;;;;;;;1.08;1.08;;;;;30.90;98395.00;;;;5120712;28;20289;-75
2022/07/20 09:24:04;;;;;;;1.77;1.67;;;;;31.00;98397.00;;;;5120530;28;20192;-72
2022/07/20 09:26:31;;;;;;;1.27;1.17;;;;;31.00;98391.00;;;;5120667;28;20242;-72
2022/07/20 09:29:00;;;;;;;7.68;1.58;;;;;31.10;98403.00;;;;5120504;28;20644;-73
2022/07/20 09:31:30;;;;;;;2.17;1.73;;;;;31.30;98393.00;;;;5102774;28;20212;-73
2022/07/20 09:34:12;;;;;;;1.52;1.42;;;;;31.30;98393.00;;;;5120533;28;20637;-72
2022/07/20 09:36:41;;;;;;;1.20;1.02;;;;;31.30;98393.00;;;;5120318;28;20229;-72
2022/07/20 09:39:09;;;;;;;1.52;1.50;;;;;31.30;98397.00;;;;5120438;27;20284;-73
2022/07/20 09:41:39;;;;;;;2.17;1.92;;;;;31.40;98397.00;;;;5102436;28;20320;-72
2022/07/20 09:44:07;;;;;;;0.88;0.88;;;;;31.40;98399.00;;;;5120312;28;20228;-72
2022/07/20 09:46:36;;;;;;;1.63;1.52;;;;;31.60;98396.00;;;;5120282;28;20270;-70
2022/07/20 09:49:05;;;;;;;1.20;1.20;;;;;31.60;98387.00;;;;5120503;28;20193;-71
2022/07/20 09:51:34;;;;;;;1.17;1.17;;;;;31.60;98384.00;;;;5120255;28;20242;-73
2022/07/20 09:54:04;;;;;;;0.90;0.90;;;;;31.80;98386.00;;;;5120259;28;20232;-74
2022/07/20 09:56:32;;;;;;;1.02;1.02;;;;;32.10;98381.00;;;;5120099;28;20218;-72
2022/07/20 09:59:04;;;;;;;1.25;1.25;;;;;32.00;98383.00;;;;5120133;28;20284;-74
2022/07/20 10:01:32;;;;;;;0.70;0.70;;;;;32.10;98381.00;;;;5120200;28;20622;-74
2022/07/20 10:04:01;;;;;;;0.93;0.93;;;;;32.20;98381.00;;;;5120266;28;20226;-73
2022/07/20 10:06:29;;;;;;;0.98;0.98;;;;;32.30;98382.00;;;;5120136;28;20197;-72
2022/07/20 10:08:56;;;;;;;1.27;1.23;;;;;32.30;98374.00;;;;5120039;28;20200;-72
2022/07/20 10:11:25;;;;;;;1.33;1.33;;;;;32.40;98376.00;;;;5120026;28;20262;-71
2022/07/20 10:13:55;;;;;;;1.17;1.17;;;;;32.50;98368.00;;;;5120136;28;20262;-71
2022/07/20 10:16:27;;;;;;;0.93;0.93;;;;;32.50;98377.00;;;;5116429;28;20236;-71
2022/07/20 10:18:56;;;;;;;1.30;1.30;;;;;32.70;98378.00;;;;5098780;28;20301;-70
2022/07/20 10:21:38;;;;;;;0.95;0.95;;;;;32.60;98374.00;;;;5098440;28;20217;-73
2022/07/20 10:24:30;;;;;;;1.42;1.38;;;;;32.70;98382.00;;;;5116559;28;20208;-75
2022/07/20 10:27:24;;;;;;;1.55;1.45;;;;;32.90;98377.00;;;;5094431;28;20649;-74
2022/07/20 10:29:54;;;;;;;1.63;1.52;;;;;32.90;98375.00;;;;5116471;28;20641;-74
2022/07/20 10:32:23;;;;;;;1.00;1.00;;;;;32.90;98373.00;;;;5116351;28;20221;-72
2022/07/20 10:34:51;;;;;;;1.05;1.00;;;;;33.00;98381.00;;;;5116339;28;20218;-73
2022/07/20 10:37:29;;;;;;;1.33;1.33;;;;;33.10;98377.00;;;;5116219;28;20225;-74
2022/07/20 10:40:13;;;;;;;0.57;0.57;;;;;33.50;98379.00;;;;5116328;28;20625;-75
2022/07/20 10:42:45;;;;;;;1.48;1.42;;;;;33.50;98378.00;;;;5116283;28;20209;-75
2022/07/20 10:45:30;;;;;;;1.05;1.05;;;;;33.50;98383.00;;;;5116179;28;20645;-74
2022/07/20 10:48:01;;;;;;;0.95;0.95;;;;;33.60;98382.00;;;;5116120;28;20213;-73
2022/07/20 10:50:33;;;;;;;1.08;1.08;;;;;33.60;98381.00;;;;5116021;28;20289;-72
2022/07/20 10:53:36;;;;;;;1.10;1.10;;;;;33.80;98386.00;;;;5116074;28;20515;-73
2022/07/20 10:56:05;;;;;;;1.13;1.13;;;;;34.00;98382.00;;;;5115867;28;20673;-75
2022/07/20 10:58:36;;;;;;;1.00;1.00;;;;;34.20;98372.00;;;;5115959;28;20191;-73
2022/07/20 11:01:05;;;;;;;1.20;1.20;;;;;34.20;98384.00;;;;5115787;28;20740;-72
2022/07/20 11:03:36;;;;;;;1.30;1.30;;;;;34.40;98383.00;;;;5116111;28;20205;-71
2022/07/20 11:06:08;;;;;;;1.20;1.20;;;;;34.50;98385.00;;;;5115910;28;20625;-72
2022/07/20 11:08:36;;;;;;;1.10;1.10;;;;;34.70;98389.00;;;;5097958;28;20297;-73
2022/07/20 11:11:03;;;;;;;1.15;1.15;;;;;34.80;98395.00;;;;5115683;28;20715;-74
2022/07/20 11:13:29;;;;;;;1.95;1.85;;;;;34.70;98384.00;;;;5115718;28;20198;-74
2022/07/20 11:15:58;;;;;;;1.23;1.23;;;;;34.80;98382.00;;;;5115570;28;20218;-74
2022/07/20 11:18:27;;;;;;;0.77;0.77;;;;;35.00;98376.00;;;;5115499;28;20294;-74
2022/07/20 11:20:55;;;;;;;0.98;0.98;;;;;35.00;98378.00;;;;5115558;28;20210;-74
2022/07/20 11:23:24;;;;;;;0.95;0.95;;;;;34.70;98380.00;;;;5097546;28;20669;-72
2022/07/20 11:25:54;;;;;;;1.27;1.27;;;;;34.90;98379.00;;;;5115177;28;20737;-73
2022/07/20 11:28:23;;;;;;;1.05;1.05;;;;;35.10;98375.00;;;;5115565;28;20596;-73
2022/07/20 11:30:51;;;;;;;1.10;1.10;;;;;35.10;98369.00;;;;5115473;28;20639;-72
2022/07/20 11:33:26;;;;;;;1.20;1.20;;;;;34.90;98363.00;;;;5115482;28;20284;-72
2022/07/20 11:35:54;;;;;;;1.00;1.00;;;;;34.90;98368.00;;;;5097332;28;20729;-75
2022/07/20 11:38:21;;;;;;;1.10;1.10;;;;;35.00;98364.00;;;;5115464;28;20220;-74
2022/07/20 11:40:59;;;;;;;1.75;1.65;;;;;35.30;98359.00;;;;5115199;28;20228;-75
2022/07/20 11:43:26;;;;;;;1.17;1.17;;;;;35.40;98359.00;;;;5115398;28;20201;-71
2022/07/20 11:45:53;;;;;;;1.60;1.50;;;;;35.60;98362.00;;;;5114976;28;20194;-73
2022/07/20 11:48:21;;;;;;;1.20;1.20;;;;;35.90;98352.00;;;;5115085;28;20289;-74
2022/07/20 11:50:49;;;;;;;2.65;1.65;;;;;36.10;98360.00;;;;5114997;28;20205;-72
2022/07/20 11:53:27;;;;;;;1.33;1.05;;;;;36.20;98353.00;;;;5097014;28;20266;-73
2022/07/20 11:55:54;;;;;;;2.13;1.95;;;;;36.20;98354.00;;;;5114938;28;20232;-72
2022/07/20 11:58:31;;;;;;;2.05;1.95;;;;;36.20;98347.00;;;;5114936;28;20278;-74
2022/07/20 12:00:59;;;;;;;1.92;1.70;;;;;36.20;98351.00;;;;5115123;28;20221;-75
2022/07/20 12:03:28;;;;;;;3.63;3.03;;;;;36.40;98354.00;;;;5115247;28;20226;-77
2022/07/20 12:05:59;;;;;;;1.17;1.17;;;;;36.60;98349.00;;;;5114760;28;20285;-76
2022/07/20 12:08:26;;;;;;;1.27;1.27;;;;;36.70;98341.00;;;;5114891;28;20197;-76
2022/07/20 12:10:54;;;;;;;2.30;2.15;;;;;36.80;98337.00;;;;5114762;28;20276;-75
2022/07/20 12:13:21;;;;;;;2.33;2.15;;;;;36.60;98335.00;;;;5114720;28;20199;-75
2022/07/20 12:15:56;;;;;;;2.90;2.63;;;;;36.20;98332.00;;;;5114462;28;20221;-73
2022/07/20 12:18:37;;;;;;;2.65;2.30;;;;;36.40;98331.00;;;;5114472;28;20709;-73
2022/07/20 12:21:05;;;;;;;2.97;2.78;;;;;36.90;98320.00;;;;5114229;28;20255;-74
2022/07/20 12:23:33;;;;;;;2.65;2.50;;;;;37.00;98330.00;;;;5114194;28;20206;-74
2022/07/20 12:26:00;;;;;;;2.00;1.77;;;;;37.20;98326.00;;;;5114123;28;20240;-73
2022/07/20 12:28:33;;;;;;;1.70;1.60;;;;;36.50;98335.00;;;;5114205;28;20224;-74
2022/07/20 12:31:13;;;;;;;2.58;2.40;;;;;36.40;98340.00;;;;5114083;28;20209;-74